sensor_id;sensor_type;location;lat;lon;timestamp;temperature;humidity
1377;DHT22;682;52.502;13.488;2022-11-04T00:02:03;9.30;1.00
1377;DHT22;682;52.502;13.488;2022-11-04T00:04:30;9.30;1.00
1377;DHT22;682;52.502;13.488;2022-11-04T00:07:00;9.20;1.00
1377;DHT22;682;52.502;13.488;2022-11-04T00:09:51;9.20;1.00
1377;DHT22;682;52.502;13.488;2022-11-04T00:12:17;9.20;1.00
1377;DHT22;682;52.502;13.488;2022-11-04T00:14:49;9.10;1.00
1377;DHT22;682;52.502;13.488;2022-11-04T00:17:16;9.10;1.00
1377;DHT22;682;52.502;13.488;2022-11-04T00:19:51;9.10;1.00
1377;DHT22;682;52.502;13.488;2022-11-04T00:22:38;9.00;1.00
1377;DHT22;682;52.502;13.488;2022-11-04T00:25:22;8.90;1.00
1377;DHT22;682;52.502;13.488;2022-11-04T00:28:10;9.00;1.00
1377;DHT22;682;52.502;13.488;2022-11-04T00:30:56;8.90;1.00
1377;DHT22;682;52.502;13.488;2022-11-04T00:33:46;9.00;1.00
1377;DHT22;682;52.502;13.488;2022-11-04T00:36:13;9.00;1.00
1377;DHT22;682;52.502;13.488;2022-11-04T00:38:43;9.00;1.00
1377;DHT22;682;52.502;13.488;2022-11-04T00:41:12;9.00;1.00
1377;DHT22;682;52.502;13.488;2022-11-04T00:43:53;9.00;1.00
1377;DHT22;682;52.502;13.488;2022-11-04T00:46:24;8.90;1.00
1377;DHT22;682;52.502;13.488;2022-11-04T00:48:53;8.80;1.00
1377;DHT22;682;52.502;13.488;2022-11-04T00:51:20;8.70;1.00
1377;DHT22;682;52.502;13.488;2022-11-04T00:53:49;8.70;1.00
1377;DHT22;682;52.502;13.488;2022-11-04T00:56:22;8.70;1.00
1377;DHT22;682;52.502;13.488;2022-11-04T00:58:53;8.70;1.00
1377;DHT22;682;52.502;13.488;2022-11-04T01:01:23;8.70;1.00
1377;DHT22;682;52.502;13.488;2022-11-04T01:03:53;8.70;1.00
1377;DHT22;682;52.502;13.488;2022-11-04T01:06:23;8.60;1.00
1377;DHT22;682;52.502;13.488;2022-11-04T01:08:57;8.60;1.00
1377;DHT22;682;52.502;13.488;2022-11-04T01:11:27;8.60;1.00
1377;DHT22;682;52.502;13.488;2022-11-04T01:13:56;8.50;1.00
1377;DHT22;682;52.502;13.488;2022-11-04T01:16:23;8.60;1.00
1377;DHT22;682;52.502;13.488;2022-11-04T01:18:53;8.60;1.00
1377;DHT22;682;52.502;13.488;2022-11-04T01:21:22;8.50;1.00
1377;DHT22;682;52.502;13.488;2022-11-04T01:23:49;8.60;1.00
1377;DHT22;682;52.502;13.488;2022-11-04T01:26:23;8.60;1.00
1377;DHT22;682;52.502;13.488;2022-11-04T01:28:51;8.60;1.00
1377;DHT22;682;52.502;13.488;2022-11-04T01:31:21;8.60;1.00
1377;DHT22;682;52.502;13.488;2022-11-04T01:33:49;8.70;1.00
1377;DHT22;682;52.502;13.488;2022-11-04T01:36:19;8.70;1.00
1377;DHT22;682;52.502;13.488;2022-11-04T01:38:49;8.80;1.00
1377;DHT22;682;52.502;13.488;2022-11-04T01:41:20;8.80;1.00
1377;DHT22;682;52.502;13.488;2022-11-04T01:43:49;8.80;1.00
1377;DHT22;682;52.502;13.488;2022-11-04T01:46:24;8.90;1.00
1377;DHT22;682;52.502;13.488;2022-11-04T01:49:00;8.90;1.00
1377;DHT22;682;52.502;13.488;2022-11-04T01:51:31;8.90;1.00
1377;DHT22;682;52.502;13.488;2022-11-04T01:54:00;9.00;1.00
1377;DHT22;682;52.502;13.488;2022-11-04T01:56:31;9.00;1.00
1377;DHT22;682;52.502;13.488;2022-11-04T01:59:02;9.00;1.00
1377;DHT22;682;52.502;13.488;2022-11-04T02:01:30;9.00;1.00
1377;DHT22;682;52.502;13.488;2022-11-04T02:03:58;9.00;1.00
1377;DHT22;682;52.502;13.488;2022-11-04T02:06:53;9.00;1.00
1377;DHT22;682;52.502;13.488;2022-11-04T02:09:22;9.10;1.00
1377;DHT22;682;52.502;13.488;2022-11-04T02:11:51;9.10;1.00
1377;DHT22;682;52.502;13.488;2022-11-04T02:14:35;8.90;1.00
1377;DHT22;682;52.502;13.488;2022-11-04T02:17:11;8.80;1.00
1377;DHT22;682;52.502;13.488;2022-11-04T02:19:54;8.80;1.00
1377;DHT22;682;52.502;13.488;2022-11-04T02:22:42;8.80;1.00
1377;DHT22;682;52.502;13.488;2022-11-04T02:25:46;8.60;1.00
1377;DHT22;682;52.502;13.488;2022-11-04T02:28:32;8.60;1.00
1377;DHT22;682;52.502;13.488;2022-11-04T02:31:13;8.70;1.00
1377;DHT22;682;52.502;13.488;2022-11-04T02:33:45;8.70;1.00
1377;DHT22;682;52.502;13.488;2022-11-04T02:36:26;8.60;1.00
1377;DHT22;682;52.502;13.488;2022-11-04T02:39:04;8.60;1.00
1377;DHT22;682;52.502;13.488;2022-11-04T02:41:39;8.70;1.00
1377;DHT22;682;52.502;13.488;2022-11-04T02:44:14;8.70;1.00
1377;DHT22;682;52.502;13.488;2022-11-04T02:46:48;8.70;1.00
1377;DHT22;682;52.502;13.488;2022-11-04T02:49:32;8.60;1.00
1377;DHT22;682;52.502;13.488;2022-11-04T02:52:05;8.70;1.00
1377;DHT22;682;52.502;13.488;2022-11-04T02:54:38;8.70;1.00
1377;DHT22;682;52.502;13.488;2022-11-04T02:57:11;8.80;1.00
1377;DHT22;682;52.502;13.488;2022-11-04T02:59:42;8.70;1.00
1377;DHT22;682;52.502;13.488;2022-11-04T03:02:17;8.70;1.00
1377;DHT22;682;52.502;13.488;2022-11-04T03:04:48;8.80;1.00
1377;DHT22;682;52.502;13.488;2022-11-04T03:07:22;8.80;1.00
1377;DHT22;682;52.502;13.488;2022-11-04T03:09:56;8.80;1.00
1377;DHT22;682;52.502;13.488;2022-11-04T03:12:33;8.80;1.00
1377;DHT22;682;52.502;13.488;2022-11-04T03:15:04;8.70;1.00
1377;DHT22;682;52.502;13.488;2022-11-04T03:17:39;8.60;1.00
1377;DHT22;682;52.502;13.488;2022-11-04T03:20:12;8.60;1.00
1377;DHT22;682;52.502;13.488;2022-11-04T03:22:40;8.60;1.00
1377;DHT22;682;52.502;13.488;2022-11-04T03:25:08;8.60;1.00
1377;DHT22;682;52.502;13.488;2022-11-04T03:27:44;8.70;1.00
1377;DHT22;682;52.502;13.488;2022-11-04T03:30:15;8.70;1.00
1377;DHT22;682;52.502;13.488;2022-11-04T03:32:52;8.80;1.00
1377;DHT22;682;52.502;13.488;2022-11-04T03:35:24;8.80;1.00
1377;DHT22;682;52.502;13.488;2022-11-04T03:37:52;8.80;1.00
1377;DHT22;682;52.502;13.488;2022-11-04T03:40:22;8.60;1.00
1377;DHT22;682;52.502;13.488;2022-11-04T03:42:54;8.60;1.00
1377;DHT22;682;52.502;13.488;2022-11-04T03:45:23;8.70;1.00
1377;DHT22;682;52.502;13.488;2022-11-04T03:47:53;8.80;1.00
1377;DHT22;682;52.502;13.488;2022-11-04T03:50:26;8.90;1.00
1377;DHT22;682;52.502;13.488;2022-11-04T03:52:53;8.90;1.00
1377;DHT22;682;52.502;13.488;2022-11-04T03:55:26;9.00;1.00
1377;DHT22;682;52.502;13.488;2022-11-04T03:57:56;8.80;1.00
1377;DHT22;682;52.502;13.488;2022-11-04T04:00:38;8.80;1.00
1377;DHT22;682;52.502;13.488;2022-11-04T04:03:17;8.80;1.00
1377;DHT22;682;52.502;13.488;2022-11-04T04:05:52;8.70;1.00
1377;DHT22;682;52.502;13.488;2022-11-04T04:08:35;8.80;1.00
1377;DHT22;682;52.502;13.488;2022-11-04T04:11:07;8.80;1.00
1377;DHT22;682;52.502;13.488;2022-11-04T04:13:47;8.80;1.00
1377;DHT22;682;52.502;13.488;2022-11-04T04:16:24;8.70;1.00
1377;DHT22;682;52.502;13.488;2022-11-04T04:19:10;8.60;1.00
1377;DHT22;682;52.502;13.488;2022-11-04T04:21:44;8.70;1.00
1377;DHT22;682;52.502;13.488;2022-11-04T04:24:17;8.70;1.00
1377;DHT22;682;52.502;13.488;2022-11-04T04:27:03;8.70;1.00
1377;DHT22;682;52.502;13.488;2022-11-04T04:29:53;8.80;1.00
1377;DHT22;682;52.502;13.488;2022-11-04T04:32:34;8.80;1.00
1377;DHT22;682;52.502;13.488;2022-11-04T04:35:05;8.80;1.00
1377;DHT22;682;52.502;13.488;2022-11-04T04:37:54;8.90;1.00
1377;DHT22;682;52.502;13.488;2022-11-04T04:40:44;9.00;1.00
1377;DHT22;682;52.502;13.488;2022-11-04T04:43:41;9.00;1.00
1377;DHT22;682;52.502;13.488;2022-11-04T04:46:27;8.90;1.00
1377;DHT22;682;52.502;13.488;2022-11-04T04:49:04;8.90;1.00
1377;DHT22;682;52.502;13.488;2022-11-04T04:51:35;9.00;1.00
1377;DHT22;682;52.502;13.488;2022-11-04T04:54:03;9.00;1.00
1377;DHT22;682;52.502;13.488;2022-11-04T04:56:30;9.00;1.00
1377;DHT22;682;52.502;13.488;2022-11-04T04:58:59;9.10;1.00
1377;DHT22;682;52.502;13.488;2022-11-04T05:01:35;9.10;1.00
1377;DHT22;682;52.502;13.488;2022-11-04T05:04:04;9.20;1.00
1377;DHT22;682;52.502;13.488;2022-11-04T05:06:34;9.20;1.00
1377;DHT22;682;52.502;13.488;2022-11-04T05:09:06;9.20;1.00
1377;DHT22;682;52.502;13.488;2022-11-04T05:11:40;9.30;1.00
1377;DHT22;682;52.502;13.488;2022-11-04T05:14:08;9.30;1.00
1377;DHT22;682;52.502;13.488;2022-11-04T05:16:41;9.30;1.00
1377;DHT22;682;52.502;13.488;2022-11-04T05:19:14;9.30;1.00
1377;DHT22;682;52.502;13.488;2022-11-04T05:21:45;9.40;1.00
1377;DHT22;682;52.502;13.488;2022-11-04T05:24:12;9.30;1.00
1377;DHT22;682;52.502;13.488;2022-11-04T05:26:39;9.40;1.00
1377;DHT22;682;52.502;13.488;2022-11-04T05:29:15;9.40;1.00
1377;DHT22;682;52.502;13.488;2022-11-04T05:31:46;9.40;1.00
1377;DHT22;682;52.502;13.488;2022-11-04T05:34:15;9.50;1.00
1377;DHT22;682;52.502;13.488;2022-11-04T05:36:43;9.50;1.00
1377;DHT22;682;52.502;13.488;2022-11-04T05:39:11;9.50;1.00
1377;DHT22;682;52.502;13.488;2022-11-04T05:41:38;9.50;1.00
1377;DHT22;682;52.502;13.488;2022-11-04T05:44:07;9.60;1.00
1377;DHT22;682;52.502;13.488;2022-11-04T05:46:34;9.70;1.00
1377;DHT22;682;52.502;13.488;2022-11-04T05:49:03;9.70;1.00
1377;DHT22;682;52.502;13.488;2022-11-04T05:51:31;9.70;1.00
1377;DHT22;682;52.502;13.488;2022-11-04T05:54:03;9.80;1.00
1377;DHT22;682;52.502;13.488;2022-11-04T05:56:34;9.80;1.00
1377;DHT22;682;52.502;13.488;2022-11-04T05:59:01;9.80;1.00
1377;DHT22;682;52.502;13.488;2022-11-04T06:01:31;9.90;1.00
1377;DHT22;682;52.502;13.488;2022-11-04T06:04:01;9.90;1.00
1377;DHT22;682;52.502;13.488;2022-11-04T06:06:32;9.90;1.00
1377;DHT22;682;52.502;13.488;2022-11-04T06:09:03;10.00;1.00
1377;DHT22;682;52.502;13.488;2022-11-04T06:11:34;9.90;1.00
1377;DHT22;682;52.502;13.488;2022-11-04T06:14:01;9.90;1.00
1377;DHT22;682;52.502;13.488;2022-11-04T06:16:33;9.80;1.00
1377;DHT22;682;52.502;13.488;2022-11-04T06:19:00;9.80;1.00
1377;DHT22;682;52.502;13.488;2022-11-04T06:21:31;9.80;1.00
1377;DHT22;682;52.502;13.488;2022-11-04T06:24:00;9.90;1.00
1377;DHT22;682;52.502;13.488;2022-11-04T06:26:30;9.90;1.00
1377;DHT22;682;52.502;13.488;2022-11-04T06:28:59;9.90;1.00
1377;DHT22;682;52.502;13.488;2022-11-04T06:31:28;9.90;1.00
1377;DHT22;682;52.502;13.488;2022-11-04T06:33:58;10.00;1.00
1377;DHT22;682;52.502;13.488;2022-11-04T06:36:25;9.90;1.00
1377;DHT22;682;52.502;13.488;2022-11-04T06:38:52;9.90;1.00
1377;DHT22;682;52.502;13.488;2022-11-04T06:41:21;9.90;1.00
1377;DHT22;682;52.502;13.488;2022-11-04T06:43:50;10.00;1.00
1377;DHT22;682;52.502;13.488;2022-11-04T06:46:25;10.10;1.00
1377;DHT22;682;52.502;13.488;2022-11-04T06:48:53;10.10;1.00
1377;DHT22;682;52.502;13.488;2022-11-04T06:51:21;10.20;1.00
1377;DHT22;682;52.502;13.488;2022-11-04T06:53:48;10.20;1.00
1377;DHT22;682;52.502;13.488;2022-11-04T06:56:14;10.30;1.00
1377;DHT22;682;52.502;13.488;2022-11-04T06:58:55;10.30;1.00
1377;DHT22;682;52.502;13.488;2022-11-04T07:01:25;10.40;1.00
1377;DHT22;682;52.502;13.488;2022-11-04T07:03:53;10.40;1.00
1377;DHT22;682;52.502;13.488;2022-11-04T07:06:27;10.40;1.00
1377;DHT22;682;52.502;13.488;2022-11-04T07:08:58;10.50;1.00
1377;DHT22;682;52.502;13.488;2022-11-04T07:11:26;10.60;1.00
1377;DHT22;682;52.502;13.488;2022-11-04T07:13:56;10.60;1.00
1377;DHT22;682;52.502;13.488;2022-11-04T07:16:25;10.50;1.00
1377;DHT22;682;52.502;13.488;2022-11-04T07:18:54;10.60;1.00
1377;DHT22;682;52.502;13.488;2022-11-04T07:21:21;10.70;1.00
1377;DHT22;682;52.502;13.488;2022-11-04T07:23:48;10.70;1.00
1377;DHT22;682;52.502;13.488;2022-11-04T07:26:17;10.70;1.00
1377;DHT22;682;52.502;13.488;2022-11-04T07:28:44;10.70;1.00
1377;DHT22;682;52.502;13.488;2022-11-04T07:31:13;10.80;1.00
1377;DHT22;682;52.502;13.488;2022-11-04T07:33:40;10.70;1.00
1377;DHT22;682;52.502;13.488;2022-11-04T07:36:10;10.70;1.00
1377;DHT22;682;52.502;13.488;2022-11-04T07:38:44;10.70;1.00
1377;DHT22;682;52.502;13.488;2022-11-04T07:41:11;10.70;1.00
1377;DHT22;682;52.502;13.488;2022-11-04T07:43:46;10.70;1.00
1377;DHT22;682;52.502;13.488;2022-11-04T07:46:24;10.70;1.00
1377;DHT22;682;52.502;13.488;2022-11-04T07:48:51;10.70;1.00
1377;DHT22;682;52.502;13.488;2022-11-04T07:51:20;10.80;1.00
1377;DHT22;682;52.502;13.488;2022-11-04T07:53:47;10.90;1.00
1377;DHT22;682;52.502;13.488;2022-11-04T07:56:15;11.00;1.00
1377;DHT22;682;52.502;13.488;2022-11-04T07:58:43;11.10;1.00
1377;DHT22;682;52.502;13.488;2022-11-04T08:01:14;11.30;1.00
1377;DHT22;682;52.502;13.488;2022-11-04T08:03:43;11.40;1.00
1377;DHT22;682;52.502;13.488;2022-11-04T08:06:12;11.50;1.00
1377;DHT22;682;52.502;13.488;2022-11-04T08:08:40;11.60;1.00
1377;DHT22;682;52.502;13.488;2022-11-04T08:11:10;11.60;1.00
1377;DHT22;682;52.502;13.488;2022-11-04T08:13:44;11.60;1.00
1377;DHT22;682;52.502;13.488;2022-11-04T08:16:14;11.60;1.00
1377;DHT22;682;52.502;13.488;2022-11-04T08:18:43;11.60;1.00
1377;DHT22;682;52.502;13.488;2022-11-04T08:21:11;11.50;1.00
1377;DHT22;682;52.502;13.488;2022-11-04T08:23:38;11.50;1.00
1377;DHT22;682;52.502;13.488;2022-11-04T08:26:07;11.60;1.00
1377;DHT22;682;52.502;13.488;2022-11-04T08:28:34;11.60;1.00
1377;DHT22;682;52.502;13.488;2022-11-04T08:31:05;11.70;1.00
1377;DHT22;682;52.502;13.488;2022-11-04T08:33:35;11.80;1.00
1377;DHT22;682;52.502;13.488;2022-11-04T08:36:05;11.80;1.00
1377;DHT22;682;52.502;13.488;2022-11-04T08:38:34;11.80;1.00
1377;DHT22;682;52.502;13.488;2022-11-04T08:41:05;11.80;1.00
1377;DHT22;682;52.502;13.488;2022-11-04T08:43:35;11.80;1.00
1377;DHT22;682;52.502;13.488;2022-11-04T08:46:04;11.80;1.00
1377;DHT22;682;52.502;13.488;2022-11-04T08:48:33;11.80;1.00
1377;DHT22;682;52.502;13.488;2022-11-04T08:51:09;11.70;1.00
1377;DHT22;682;52.502;13.488;2022-11-04T08:53:38;11.80;1.00
1377;DHT22;682;52.502;13.488;2022-11-04T08:56:12;11.90;1.00
1377;DHT22;682;52.502;13.488;2022-11-04T08:58:41;11.90;1.00
1377;DHT22;682;52.502;13.488;2022-11-04T09:01:09;12.00;1.00
1377;DHT22;682;52.502;13.488;2022-11-04T09:03:38;12.00;1.00
1377;DHT22;682;52.502;13.488;2022-11-04T09:06:06;11.90;1.00
1377;DHT22;682;52.502;13.488;2022-11-04T09:08:34;11.90;1.00
1377;DHT22;682;52.502;13.488;2022-11-04T09:11:07;11.90;1.00
1377;DHT22;682;52.502;13.488;2022-11-04T09:13:36;11.90;1.00
1377;DHT22;682;52.502;13.488;2022-11-04T09:16:07;12.00;1.00
1377;DHT22;682;52.502;13.488;2022-11-04T09:18:37;12.00;1.00
1377;DHT22;682;52.502;13.488;2022-11-04T09:21:05;12.10;1.00
1377;DHT22;682;52.502;13.488;2022-11-04T09:23:34;12.10;1.00
1377;DHT22;682;52.502;13.488;2022-11-04T09:26:07;12.20;1.00
1377;DHT22;682;52.502;13.488;2022-11-04T09:28:36;12.30;1.00
1377;DHT22;682;52.502;13.488;2022-11-04T09:31:05;12.30;1.00
1377;DHT22;682;52.502;13.488;2022-11-04T09:33:35;12.40;1.00
1377;DHT22;682;52.502;13.488;2022-11-04T09:36:06;12.40;1.00
1377;DHT22;682;52.502;13.488;2022-11-04T09:38:34;12.50;1.00
1377;DHT22;682;52.502;13.488;2022-11-04T09:41:10;12.60;1.00
1377;DHT22;682;52.502;13.488;2022-11-04T09:43:51;12.70;1.00
1377;DHT22;682;52.502;13.488;2022-11-04T09:46:20;12.70;1.00
1377;DHT22;682;52.502;13.488;2022-11-04T09:48:51;12.90;1.00
1377;DHT22;682;52.502;13.488;2022-11-04T09:51:24;13.00;1.00
1377;DHT22;682;52.502;13.488;2022-11-04T09:53:57;12.90;1.00
1377;DHT22;682;52.502;13.488;2022-11-04T09:56:31;13.00;1.00
1377;DHT22;682;52.502;13.488;2022-11-04T09:59:01;13.00;1.00
1377;DHT22;682;52.502;13.488;2022-11-04T10:01:36;13.00;1.00
1377;DHT22;682;52.502;13.488;2022-11-04T10:04:15;13.10;1.00
1377;DHT22;682;52.502;13.488;2022-11-04T10:07:01;13.20;1.00
1377;DHT22;682;52.502;13.488;2022-11-04T10:09:43;13.30;1.00
1377;DHT22;682;52.502;13.488;2022-11-04T10:12:21;13.30;1.00
1377;DHT22;682;52.502;13.488;2022-11-04T10:15:01;13.20;1.00
1377;DHT22;682;52.502;13.488;2022-11-04T10:17:43;13.20;1.00
1377;DHT22;682;52.502;13.488;2022-11-04T10:20:24;13.20;1.00
1377;DHT22;682;52.502;13.488;2022-11-04T10:23:01;13.20;1.00
1377;DHT22;682;52.502;13.488;2022-11-04T10:25:39;13.20;1.00
1377;DHT22;682;52.502;13.488;2022-11-04T10:28:15;13.20;1.00
1377;DHT22;682;52.502;13.488;2022-11-04T10:30:46;13.10;1.00
1377;DHT22;682;52.502;13.488;2022-11-04T10:33:22;13.10;1.00
1377;DHT22;682;52.502;13.488;2022-11-04T10:35:54;13.00;1.00
1377;DHT22;682;52.502;13.488;2022-11-04T10:38:30;13.00;1.00
1377;DHT22;682;52.502;13.488;2022-11-04T10:40:59;13.00;1.00
1377;DHT22;682;52.502;13.488;2022-11-04T10:43:31;13.10;1.00
1377;DHT22;682;52.502;13.488;2022-11-04T10:46:16;13.10;1.00
1377;DHT22;682;52.502;13.488;2022-11-04T10:48:49;13.00;1.00
1377;DHT22;682;52.502;13.488;2022-11-04T10:51:17;13.00;1.00
1377;DHT22;682;52.502;13.488;2022-11-04T10:53:47;12.90;1.00
1377;DHT22;682;52.502;13.488;2022-11-04T10:56:19;12.80;1.00
1377;DHT22;682;52.502;13.488;2022-11-04T10:58:52;12.90;1.00
1377;DHT22;682;52.502;13.488;2022-11-04T11:01:27;12.80;1.00
1377;DHT22;682;52.502;13.488;2022-11-04T11:03:55;12.70;1.00
1377;DHT22;682;52.502;13.488;2022-11-04T11:06:29;12.70;1.00
1377;DHT22;682;52.502;13.488;2022-11-04T11:09:19;12.60;1.00
1377;DHT22;682;52.502;13.488;2022-11-04T11:11:58;12.50;1.00
1377;DHT22;682;52.502;13.488;2022-11-04T11:14:41;12.50;1.00
1377;DHT22;682;52.502;13.488;2022-11-04T11:17:21;12.50;1.00
1377;DHT22;682;52.502;13.488;2022-11-04T11:19:56;12.40;1.00
1377;DHT22;682;52.502;13.488;2022-11-04T11:22:36;12.30;1.00
1377;DHT22;682;52.502;13.488;2022-11-04T11:25:21;12.30;1.00
1377;DHT22;682;52.502;13.488;2022-11-04T11:27:58;12.20;1.00
1377;DHT22;682;52.502;13.488;2022-11-04T11:30:29;12.20;1.00
1377;DHT22;682;52.502;13.488;2022-11-04T11:33:01;12.30;1.00
1377;DHT22;682;52.502;13.488;2022-11-04T11:35:57;12.20;1.00
1377;DHT22;682;52.502;13.488;2022-11-04T11:38:28;12.30;1.00
1377;DHT22;682;52.502;13.488;2022-11-04T11:41:09;12.30;1.00
1377;DHT22;682;52.502;13.488;2022-11-04T11:43:45;12.30;1.00
1377;DHT22;682;52.502;13.488;2022-11-04T11:46:29;12.20;1.00
1377;DHT22;682;52.502;13.488;2022-11-04T11:49:00;12.20;1.00
1377;DHT22;682;52.502;13.488;2022-11-04T11:51:44;12.20;1.00
1377;DHT22;682;52.502;13.488;2022-11-04T11:54:27;12.20;1.00
1377;DHT22;682;52.502;13.488;2022-11-04T11:57:28;12.20;1.00
1377;DHT22;682;52.502;13.488;2022-11-04T12:00:08;12.20;1.00
1377;DHT22;682;52.502;13.488;2022-11-04T12:02:50;12.10;1.00
1377;DHT22;682;52.502;13.488;2022-11-04T12:05:26;12.10;1.00
1377;DHT22;682;52.502;13.488;2022-11-04T12:08:14;12.10;1.00
1377;DHT22;682;52.502;13.488;2022-11-04T12:10:51;12.00;1.00
1377;DHT22;682;52.502;13.488;2022-11-04T12:13:23;11.90;1.00
1377;DHT22;682;52.502;13.488;2022-11-04T12:16:08;11.90;1.00
1377;DHT22;682;52.502;13.488;2022-11-04T12:19:01;11.90;1.00
1377;DHT22;682;52.502;13.488;2022-11-04T12:21:38;11.90;1.00
1377;DHT22;682;52.502;13.488;2022-11-04T12:24:16;11.80;1.00
1377;DHT22;682;52.502;13.488;2022-11-04T12:26:51;11.80;1.00
1377;DHT22;682;52.502;13.488;2022-11-04T12:29:32;11.80;1.00
1377;DHT22;682;52.502;13.488;2022-11-04T12:32:11;11.90;1.00
1377;DHT22;682;52.502;13.488;2022-11-04T12:34:53;11.90;1.00
1377;DHT22;682;52.502;13.488;2022-11-04T12:37:29;12.00;1.00
1377;DHT22;682;52.502;13.488;2022-11-04T12:40:09;12.00;1.00
1377;DHT22;682;52.502;13.488;2022-11-04T12:43:03;12.00;1.00
1377;DHT22;682;52.502;13.488;2022-11-04T12:45:42;12.10;1.00
1377;DHT22;682;52.502;13.488;2022-11-04T12:48:22;12.10;1.00
1377;DHT22;682;52.502;13.488;2022-11-04T12:51:05;12.00;1.00
1377;DHT22;682;52.502;13.488;2022-11-04T12:53:57;11.90;1.00
1377;DHT22;682;52.502;13.488;2022-11-04T12:56:33;11.90;1.00
1377;DHT22;682;52.502;13.488;2022-11-04T12:59:21;11.80;1.00
1377;DHT22;682;52.502;13.488;2022-11-04T13:01:54;11.80;1.00
1377;DHT22;682;52.502;13.488;2022-11-04T13:04:30;11.80;1.00
1377;DHT22;682;52.502;13.488;2022-11-04T13:07:03;11.80;1.00
1377;DHT22;682;52.502;13.488;2022-11-04T13:09:39;11.80;1.00
1377;DHT22;682;52.502;13.488;2022-11-04T13:12:10;11.80;1.00
1377;DHT22;682;52.502;13.488;2022-11-04T13:14:43;11.80;1.00
1377;DHT22;682;52.502;13.488;2022-11-04T13:17:26;11.80;1.00
1377;DHT22;682;52.502;13.488;2022-11-04T13:20:00;11.80;1.00
1377;DHT22;682;52.502;13.488;2022-11-04T13:22:33;11.90;1.00
1377;DHT22;682;52.502;13.488;2022-11-04T13:25:18;11.90;1.00
1377;DHT22;682;52.502;13.488;2022-11-04T13:27:51;12.00;1.00
1377;DHT22;682;52.502;13.488;2022-11-04T13:30:38;12.10;1.00
1377;DHT22;682;52.502;13.488;2022-11-04T13:33:20;12.10;1.00
1377;DHT22;682;52.502;13.488;2022-11-04T13:35:58;12.10;1.00
1377;DHT22;682;52.502;13.488;2022-11-04T13:38:32;12.10;1.00
1377;DHT22;682;52.502;13.488;2022-11-04T13:41:21;12.00;1.00
1377;DHT22;682;52.502;13.488;2022-11-04T13:43:57;12.00;1.00
1377;DHT22;682;52.502;13.488;2022-11-04T13:46:28;11.80;1.00
1377;DHT22;682;52.502;13.488;2022-11-04T13:49:02;11.80;1.00
1377;DHT22;682;52.502;13.488;2022-11-04T13:51:36;11.80;1.00
1377;DHT22;682;52.502;13.488;2022-11-04T13:54:23;11.70;1.00
1377;DHT22;682;52.502;13.488;2022-11-04T13:57:05;11.70;1.00
1377;DHT22;682;52.502;13.488;2022-11-04T13:59:33;11.70;1.00
1377;DHT22;682;52.502;13.488;2022-11-04T14:02:39;11.70;1.00
1377;DHT22;682;52.502;13.488;2022-11-04T14:08:21;11.70;1.00
1377;DHT22;682;52.502;13.488;2022-11-04T14:11:01;11.80;1.00
1377;DHT22;682;52.502;13.488;2022-11-04T14:14:02;11.90;1.00
1377;DHT22;682;52.502;13.488;2022-11-04T14:16:46;11.90;1.00
1377;DHT22;682;52.502;13.488;2022-11-04T14:22:44;12.00;1.00
1377;DHT22;682;52.502;13.488;2022-11-04T14:25:27;12.00;1.00
1377;DHT22;682;52.502;13.488;2022-11-04T14:27:58;12.00;1.00
1377;DHT22;682;52.502;13.488;2022-11-04T14:30:36;12.00;1.00
1377;DHT22;682;52.502;13.488;2022-11-04T14:33:28;11.90;1.00
1377;DHT22;682;52.502;13.488;2022-11-04T14:36:16;11.90;1.00
1377;DHT22;682;52.502;13.488;2022-11-04T14:38:54;11.80;1.00
1377;DHT22;682;52.502;13.488;2022-11-04T14:44:18;11.80;1.00
1377;DHT22;682;52.502;13.488;2022-11-04T14:46:47;11.80;1.00
1377;DHT22;682;52.502;13.488;2022-11-04T14:49:34;11.80;1.00
1377;DHT22;682;52.502;13.488;2022-11-04T14:52:03;11.80;1.00
1377;DHT22;682;52.502;13.488;2022-11-04T14:54:31;11.70;1.00
1377;DHT22;682;52.502;13.488;2022-11-04T14:57:08;11.70;1.00
1377;DHT22;682;52.502;13.488;2022-11-04T14:59:41;11.60;1.00
1377;DHT22;682;52.502;13.488;2022-11-04T15:02:17;11.60;1.00
1377;DHT22;682;52.502;13.488;2022-11-04T15:05:01;11.60;1.00
1377;DHT22;682;52.502;13.488;2022-11-04T15:07:33;11.60;1.00
1377;DHT22;682;52.502;13.488;2022-11-04T15:10:02;11.50;1.00
1377;DHT22;682;52.502;13.488;2022-11-04T15:12:32;11.50;1.00
1377;DHT22;682;52.502;13.488;2022-11-04T15:15:40;11.50;1.00
1377;DHT22;682;52.502;13.488;2022-11-04T15:18:13;11.50;1.00
1377;DHT22;682;52.502;13.488;2022-11-04T15:20:46;11.50;1.00
1377;DHT22;682;52.502;13.488;2022-11-04T15:23:21;11.50;1.00
1377;DHT22;682;52.502;13.488;2022-11-04T15:25:50;11.40;1.00
1377;DHT22;682;52.502;13.488;2022-11-04T15:28:20;11.30;1.00
1377;DHT22;682;52.502;13.488;2022-11-04T15:31:05;11.30;1.00
1377;DHT22;682;52.502;13.488;2022-11-04T15:33:38;11.30;1.00
1377;DHT22;682;52.502;13.488;2022-11-04T15:36:14;11.30;1.00
1377;DHT22;682;52.502;13.488;2022-11-04T15:38:46;11.30;1.00
1377;DHT22;682;52.502;13.488;2022-11-04T15:41:18;11.30;1.00
1377;DHT22;682;52.502;13.488;2022-11-04T15:44:03;11.30;1.00
1377;DHT22;682;52.502;13.488;2022-11-04T15:46:33;11.40;1.00
1377;DHT22;682;52.502;13.488;2022-11-04T15:49:03;11.40;1.00
1377;DHT22;682;52.502;13.488;2022-11-04T15:51:35;11.40;1.00
1377;DHT22;682;52.502;13.488;2022-11-04T15:54:06;11.40;1.00
1377;DHT22;682;52.502;13.488;2022-11-04T15:56:39;11.40;1.00
1377;DHT22;682;52.502;13.488;2022-11-04T15:59:16;11.40;1.00
1377;DHT22;682;52.502;13.488;2022-11-04T16:01:48;11.40;1.00
1377;DHT22;682;52.502;13.488;2022-11-04T16:04:17;11.40;1.00
1377;DHT22;682;52.502;13.488;2022-11-04T16:06:45;11.50;1.00
1377;DHT22;682;52.502;13.488;2022-11-04T16:09:20;11.50;1.00
1377;DHT22;682;52.502;13.488;2022-11-04T16:12:10;11.50;1.00
1377;DHT22;682;52.502;13.488;2022-11-04T16:14:47;11.50;1.00
1377;DHT22;682;52.502;13.488;2022-11-04T16:17:15;11.40;1.00
1377;DHT22;682;52.502;13.488;2022-11-04T16:19:46;11.50;1.00
1377;DHT22;682;52.502;13.488;2022-11-04T16:22:20;11.40;1.00
1377;DHT22;682;52.502;13.488;2022-11-04T16:24:51;11.50;1.00
1377;DHT22;682;52.502;13.488;2022-11-04T16:27:20;11.40;1.00
1377;DHT22;682;52.502;13.488;2022-11-04T16:30:00;11.50;1.00
1377;DHT22;682;52.502;13.488;2022-11-04T16:32:45;11.50;1.00
1377;DHT22;682;52.502;13.488;2022-11-04T16:35:16;11.50;1.00
1377;DHT22;682;52.502;13.488;2022-11-04T16:37:44;11.50;1.00
1377;DHT22;682;52.502;13.488;2022-11-04T16:40:14;11.50;1.00
1377;DHT22;682;52.502;13.488;2022-11-04T16:42:41;11.60;1.00
1377;DHT22;682;52.502;13.488;2022-11-04T16:45:19;11.50;1.00
1377;DHT22;682;52.502;13.488;2022-11-04T16:47:50;11.50;1.00
1377;DHT22;682;52.502;13.488;2022-11-04T16:50:17;11.50;1.00
1377;DHT22;682;52.502;13.488;2022-11-04T16:52:45;11.50;1.00
1377;DHT22;682;52.502;13.488;2022-11-04T16:55:13;11.50;1.00
1377;DHT22;682;52.502;13.488;2022-11-04T16:57:40;11.50;1.00
1377;DHT22;682;52.502;13.488;2022-11-04T17:00:17;11.50;1.00
1377;DHT22;682;52.502;13.488;2022-11-04T17:02:47;11.50;1.00
1377;DHT22;682;52.502;13.488;2022-11-04T17:05:16;11.50;1.00
1377;DHT22;682;52.502;13.488;2022-11-04T17:07:44;11.50;1.00
1377;DHT22;682;52.502;13.488;2022-11-04T17:10:14;11.50;1.00
1377;DHT22;682;52.502;13.488;2022-11-04T17:12:42;11.50;1.00
1377;DHT22;682;52.502;13.488;2022-11-04T17:15:10;11.50;1.00
1377;DHT22;682;52.502;13.488;2022-11-04T17:17:40;11.60;1.00
1377;DHT22;682;52.502;13.488;2022-11-04T17:20:11;11.50;1.00